Time;durP1;ratioP1;P1;durP2;ratioP2;P2;SDS_P1;SDS_P2;PMS_P1;PMS_P2;Temp;Humidity;BMP_temperature;BMP_pressure;BME280_temperature;BME280_humidity;BME280_pressure;Samples;Min_cycle;Max_cycle;Signal;HPM_P1;HPM_P2
2022/10/06 00:01:55;;;;;;;700.80;641.83;;;16.80;99.90;;;;;;5045765;28;20590;-77
2022/10/06 00:04:22;;;;;;;702.00;642.38;;;16.80;99.90;;;;;;5037090;28;20215;-76
2022/10/06 00:06:50;;;;;;;685.05;627.28;;;16.70;99.90;;;;;;5040134;28;20210;-77
2022/10/06 00:09:18;;;;;;;714.20;654.13;;;16.70;99.90;;;;;;5048858;28;20203;-76
2022/10/06 00:11:44;;;;;;;694.42;635.33;;;16.70;99.90;;;;;;5045916;28;20593;-77
2022/10/06 00:14:11;;;;;;;701.72;642.03;;;16.70;99.90;;;;;;5047207;28;20221;-77
2022/10/06 00:16:38;;;;;;;698.60;638.25;;;16.70;99.90;;;;;;5044900;28;20328;-76
2022/10/06 00:19:05;;;;;;;716.25;655.75;;;16.70;99.90;;;;;;5049073;28;20202;-76
2022/10/06 00:21:31;;;;;;;698.92;638.92;;;16.70;99.90;;;;;;5049419;28;20213;-76
2022/10/06 00:23:58;;;;;;;691.33;630.75;;;16.70;99.90;;;;;;5048150;28;20575;-75
2022/10/06 00:26:26;;;;;;;697.50;636.85;;;16.70;99.90;;;;;;5043520;28;20206;-76
2022/10/06 00:28:53;;;;;;;701.45;639.70;;;16.60;99.90;;;;;;5050819;28;20199;-76
2022/10/06 00:31:20;;;;;;;708.90;641.92;;;16.60;99.90;;;;;;5050977;28;20199;-76
2022/10/06 00:33:48;;;;;;;708.25;636.38;;;16.60;99.90;;;;;;5053038;28;20662;-76
2022/10/06 00:36:16;;;;;;;709.45;638.20;;;16.60;99.90;;;;;;5050388;28;20550;-76
2022/10/06 00:38:42;;;;;;;702.40;632.85;;;16.60;99.90;;;;;;5053849;28;20562;-75
2022/10/06 00:41:12;;;;;;;694.70;629.58;;;16.60;99.90;;;;;;5041569;28;20196;-77
2022/10/06 00:43:49;;;;;;;698.65;637.20;;;16.60;99.90;;;;;;5050723;28;20207;-76
2022/10/06 00:46:24;;;;;;;675.60;616.05;;;16.60;99.90;;;;;;5047119;28;20214;-75
2022/10/06 00:48:55;;;;;;;682.88;622.67;;;16.60;99.90;;;;;;5052804;28;20247;-75
2022/10/06 00:51:22;;;;;;;687.03;626.60;;;16.60;99.90;;;;;;5052040;28;20235;-76
2022/10/06 00:53:50;;;;;;;680.25;620.80;;;16.50;99.90;;;;;;5040867;28;20196;-78
2022/10/06 00:56:17;;;;;;;684.15;624.65;;;16.50;99.90;;;;;;5046901;28;20729;-76
2022/10/06 00:58:45;;;;;;;682.75;624.38;;;16.50;99.90;;;;;;5045154;28;20202;-78
2022/10/06 01:01:12;;;;;;;701.08;641.63;;;16.50;99.90;;;;;;5059080;28;20217;-76
2022/10/06 01:03:42;;;;;;;691.17;630.78;;;16.50;99.90;;;;;;5051365;28;20199;-76
2022/10/06 01:06:09;;;;;;;704.78;644.60;;;16.50;99.90;;;;;;5035920;28;20242;-76
2022/10/06 01:08:36;;;;;;;682.80;623.70;;;16.40;99.90;;;;;;5041292;28;20203;-76
2022/10/06 01:11:03;;;;;;;660.22;601.58;;;16.40;99.90;;;;;;5038422;28;20199;-75
2022/10/06 01:13:32;;;;;;;672.70;613.50;;;16.40;99.90;;;;;;5052305;28;20198;-78
2022/10/06 01:16:05;;;;;;;693.03;633.90;;;16.40;99.90;;;;;;5048955;28;20207;-76
2022/10/06 01:18:33;;;;;;;667.15;608.53;;;16.40;99.90;;;;;;5050349;28;20805;-75
2022/10/06 01:21:06;;;;;;;687.15;616.22;;;16.40;99.90;;;;;;5051887;28;20203;-76
2022/10/06 01:23:36;;;;;;;691.00;618.03;;;16.30;99.90;;;;;;5044689;28;20202;-77
2022/10/06 01:26:08;;;;;;;684.13;612.17;;;16.30;99.90;;;;;;5049386;28;20222;-76
2022/10/06 01:28:34;;;;;;;676.83;614.65;;;16.30;99.90;;;;;;5051556;28;20191;-75
2022/10/06 01:31:03;;;;;;;666.10;605.53;;;16.30;99.90;;;;;;5051588;28;20202;-75
2022/10/06 01:33:30;;;;;;;661.60;591.88;;;16.30;99.90;;;;;;5050502;28;20202;-75
2022/10/06 01:35:57;;;;;;;677.03;608.42;;;16.20;99.90;;;;;;5050725;28;20202;-75
2022/10/06 01:38:24;;;;;;;663.38;600.28;;;16.20;99.90;;;;;;5051134;28;20294;-75
2022/10/06 01:40:53;;;;;;;660.78;602.28;;;16.20;99.90;;;;;;5051725;28;20665;-76
2022/10/06 01:43:20;;;;;;;647.85;590.60;;;16.20;99.90;;;;;;5051116;28;20190;-76
2022/10/06 01:45:53;;;;;;;652.22;595.05;;;16.20;99.90;;;;;;5045804;28;20724;-75
2022/10/06 01:48:19;;;;;;;672.40;615.13;;;16.10;99.90;;;;;;5044057;28;20203;-76
2022/10/06 01:50:46;;;;;;;652.72;595.67;;;16.10;99.90;;;;;;5051355;28;20202;-76
2022/10/06 01:53:13;;;;;;;658.47;601.00;;;16.10;99.90;;;;;;5050796;28;20685;-76
2022/10/06 01:55:40;;;;;;;652.92;595.72;;;16.10;99.90;;;;;;5044623;28;20191;-76
2022/10/06 01:58:08;;;;;;;659.08;600.58;;;16.10;99.90;;;;;;5049627;28;20206;-75
2022/10/06 02:00:35;;;;;;;649.08;590.78;;;16.10;99.90;;;;;;5051157;28;20459;-75
2022/10/06 02:03:02;;;;;;;657.17;599.67;;;16.00;99.90;;;;;;5051513;28;20199;-75
2022/10/06 02:05:28;;;;;;;663.90;606.25;;;16.00;99.90;;;;;;5041135;28;20217;-77
2022/10/06 02:07:55;;;;;;;647.60;590.08;;;16.00;99.90;;;;;;5043915;28;20211;-77
2022/10/06 02:10:22;;;;;;;655.28;596.72;;;16.00;99.90;;;;;;5045264;28;20693;-75
2022/10/06 02:12:51;;;;;;;664.20;606.17;;;16.00;99.90;;;;;;5049537;28;20203;-75
2022/10/06 02:15:19;;;;;;;637.40;579.97;;;16.00;99.90;;;;;;5050447;28;20206;-76
2022/10/06 02:17:46;;;;;;;639.90;583.67;;;16.00;99.90;;;;;;5051119;28;20907;-76
2022/10/06 02:20:13;;;;;;;649.97;591.78;;;15.90;99.90;;;;;;5044203;28;20198;-75
2022/10/06 02:22:42;;;;;;;643.90;586.20;;;15.90;99.90;;;;;;5043294;28;20554;-74
2022/10/06 02:25:10;;;;;;;635.22;578.80;;;15.90;99.90;;;;;;5049983;28;20226;-75
2022/10/06 02:27:37;;;;;;;652.88;597.13;;;15.90;99.90;;;;;;5046517;28;20203;-75
2022/10/06 02:30:06;;;;;;;627.85;571.88;;;15.90;99.90;;;;;;5051585;28;20677;-75
2022/10/06 02:32:36;;;;;;;657.88;601.78;;;15.80;99.90;;;;;;5051349;28;20195;-75
2022/10/06 02:35:03;;;;;;;634.17;578.22;;;15.80;99.90;;;;;;5047119;28;20206;-74
2022/10/06 02:37:30;;;;;;;619.85;563.20;;;15.80;99.90;;;;;;5046039;28;20203;-75
2022/10/06 02:39:57;;;;;;;624.95;567.67;;;15.80;99.90;;;;;;5043899;28;20700;-75
2022/10/06 02:42:24;;;;;;;630.38;573.13;;;15.80;99.90;;;;;;5047117;28;20202;-75
2022/10/06 02:44:51;;;;;;;624.63;568.15;;;15.80;99.90;;;;;;5049213;28;20575;-76
2022/10/06 02:47:21;;;;;;;646.53;588.22;;;15.80;99.90;;;;;;5049669;28;20199;-75
2022/10/06 02:49:49;;;;;;;649.33;590.63;;;15.80;99.90;;;;;;5047433;28;20646;-75
2022/10/06 02:52:15;;;;;;;626.53;568.45;;;15.70;99.90;;;;;;5043197;28;20207;-75
2022/10/06 02:54:42;;;;;;;648.47;589.00;;;15.70;99.90;;;;;;5041981;28;20195;-74
2022/10/06 02:57:09;;;;;;;648.83;590.00;;;15.70;99.90;;;;;;5043508;28;20210;-75
2022/10/06 02:59:36;;;;;;;633.60;574.92;;;15.70;99.90;;;;;;5046037;28;20677;-77
2022/10/06 03:02:03;;;;;;;636.63;577.75;;;15.70;99.90;;;;;;5048076;28;20218;-76
2022/10/06 03:04:29;;;;;;;624.72;566.83;;;15.70;99.90;;;;;;5046427;28;20351;-75
2022/10/06 03:06:58;;;;;;;625.67;567.50;;;15.70;99.90;;;;;;5042196;28;20225;-75
2022/10/06 03:09:25;;;;;;;634.17;575.63;;;15.60;99.90;;;;;;5048553;28;20222;-75
2022/10/06 03:11:51;;;;;;;635.58;576.83;;;15.60;99.90;;;;;;5042401;28;20206;-75
2022/10/06 03:14:18;;;;;;;631.25;573.50;;;15.60;99.90;;;;;;5042376;28;20666;-75
2022/10/06 03:16:45;;;;;;;637.20;578.80;;;15.60;99.90;;;;;;5043880;28;20206;-77
2022/10/06 03:19:12;;;;;;;621.67;564.78;;;15.60;99.90;;;;;;5045723;28;20203;-76
2022/10/06 03:21:42;;;;;;;643.63;584.05;;;15.60;99.90;;;;;;5042245;28;20586;-75
2022/10/06 03:24:11;;;;;;;634.03;575.72;;;15.60;99.90;;;;;;5048248;28;20387;-74
2022/10/06 03:26:39;;;;;;;619.05;560.17;;;15.60;99.90;;;;;;5040338;28;20576;-75
2022/10/06 03:29:06;;;;;;;621.78;563.03;;;15.60;99.90;;;;;;5047271;28;20202;-77
2022/10/06 03:31:34;;;;;;;624.47;566.00;;;15.60;99.90;;;;;;5043796;28;20196;-74
2022/10/06 03:34:01;;;;;;;641.25;582.95;;;15.60;99.90;;;;;;5034858;28;20199;-75
2022/10/06 03:36:31;;;;;;;635.65;577.33;;;15.50;99.90;;;;;;5034706;28;20194;-76
2022/10/06 03:38:58;;;;;;;644.20;584.70;;;15.50;99.90;;;;;;5048393;28;20718;-75
2022/10/06 03:41:27;;;;;;;620.00;561.88;;;15.50;99.90;;;;;;5041329;28;20187;-75
2022/10/06 03:43:56;;;;;;;621.00;562.33;;;15.50;99.90;;;;;;5037056;28;20196;-74
2022/10/06 03:46:24;;;;;;;617.53;560.05;;;15.50;99.90;;;;;;5047398;28;20214;-78
2022/10/06 03:48:52;;;;;;;613.25;555.08;;;15.50;99.90;;;;;;5046070;28;20202;-74
2022/10/06 03:51:21;;;;;;;606.90;549.55;;;15.40;99.90;;;;;;5042572;28;20195;-74
2022/10/06 03:53:50;;;;;;;620.40;561.63;;;15.40;99.90;;;;;;5044399;28;20198;-77
2022/10/06 03:56:19;;;;;;;641.80;583.05;;;15.40;99.90;;;;;;5039783;28;20202;-75
2022/10/06 03:58:50;;;;;;;615.50;557.13;;;15.40;99.90;;;;;;5043720;28;20199;-74
2022/10/06 04:01:19;;;;;;;616.33;557.42;;;15.40;99.90;;;;;;5053050;28;20235;-74
2022/10/06 04:03:45;;;;;;;624.67;564.60;;;15.40;99.90;;;;;;5047266;28;20207;-75
2022/10/06 04:06:17;;;;;;;645.45;584.58;;;15.40;99.90;;;;;;5044613;28;20215;-76
2022/10/06 04:08:45;;;;;;;612.80;553.25;;;15.40;99.90;;;;;;5053765;28;20203;-74
2022/10/06 04:11:14;;;;;;;602.45;544.05;;;15.30;99.90;;;;;;5041602;28;20204;-75
2022/10/06 04:13:43;;;;;;;614.20;555.50;;;15.30;99.90;;;;;;5050698;28;20199;-75
2022/10/06 04:16:13;;;;;;;617.28;558.70;;;15.30;99.90;;;;;;5047094;28;20199;-74
2022/10/06 04:18:40;;;;;;;602.35;544.60;;;15.30;99.90;;;;;;5039507;28;20231;-74
2022/10/06 04:21:08;;;;;;;613.50;554.67;;;15.30;99.90;;;;;;5048967;28;20202;-74
2022/10/06 04:23:35;;;;;;;613.78;556.08;;;15.30;99.90;;;;;;5052091;28;20207;-75
2022/10/06 04:26:05;;;;;;;612.53;553.83;;;15.30;99.90;;;;;;5049436;28;20322;-74
2022/10/06 04:28:32;;;;;;;617.80;559.20;;;15.30;99.90;;;;;;5047843;28;20737;-75
2022/10/06 04:31:00;;;;;;;594.03;536.67;;;15.20;99.90;;;;;;5046596;28;20203;-76
2022/10/06 04:33:29;;;;;;;603.95;545.20;;;15.20;99.90;;;;;;5054769;28;20195;-74
2022/10/06 04:36:00;;;;;;;600.38;542.83;;;15.20;99.90;;;;;;5048390;28;20195;-75
2022/10/06 04:38:28;;;;;;;610.72;553.45;;;15.20;99.90;;;;;;5046435;28;20195;-76
2022/10/06 04:40:55;;;;;;;591.33;535.33;;;15.20;99.90;;;;;;5042522;28;20199;-75
2022/10/06 04:43:22;;;;;;;601.25;545.58;;;15.20;99.90;;;;;;5052049;28;20199;-74
2022/10/06 04:45:56;;;;;;;614.47;559.00;;;15.20;99.90;;;;;;5046935;28;20227;-76
2022/10/06 04:48:23;;;;;;;584.65;530.22;;;15.20;99.90;;;;;;5048775;28;20213;-76
2022/10/06 04:50:55;;;;;;;611.15;555.35;;;15.10;99.90;;;;;;5048385;28;20202;-74
2022/10/06 04:53:22;;;;;;;586.78;532.08;;;15.10;99.90;;;;;;5049052;28;20203;-75
2022/10/06 04:55:58;;;;;;;598.72;542.78;;;15.10;99.90;;;;;;5049212;28;20242;-74
2022/10/06 04:58:25;;;;;;;586.13;530.85;;;15.10;99.90;;;;;;5042989;28;20245;-75
2022/10/06 05:00:52;;;;;;;594.83;539.45;;;15.10;99.90;;;;;;5044670;28;20227;-75
2022/10/06 05:03:19;;;;;;;586.45;531.58;;;15.10;99.90;;;;;;5050829;28;20203;-75
2022/10/06 05:05:45;;;;;;;600.30;544.28;;;15.10;99.90;;;;;;5041271;28;20700;-75
2022/10/06 05:08:13;;;;;;;587.42;532.00;;;15.10;99.90;;;;;;5046943;28;20210;-75
2022/10/06 05:10:41;;;;;;;582.38;527.13;;;15.10;99.90;;;;;;5047843;28;20575;-75
2022/10/06 05:13:08;;;;;;;594.42;538.85;;;15.00;99.90;;;;;;5048375;28;20519;-76
2022/10/06 05:15:35;;;;;;;579.70;524.33;;;15.00;99.90;;;;;;5049763;28;20199;-75
2022/10/06 05:18:01;;;;;;;581.25;525.88;;;15.00;99.90;;;;;;5044132;28;20231;-77
2022/10/06 05:20:28;;;;;;;593.63;538.08;;;15.00;99.90;;;;;;5047151;28;20198;-75
2022/10/06 05:22:55;;;;;;;582.80;527.53;;;15.00;99.90;;;;;;5050333;28;20191;-75
2022/10/06 05:25:23;;;;;;;591.55;535.17;;;15.00;99.90;;;;;;5041716;28;20207;-75
2022/10/06 05:27:50;;;;;;;593.42;537.35;;;14.90;99.90;;;;;;5043558;28;20222;-75
2022/10/06 05:30:17;;;;;;;594.40;538.42;;;14.90;99.90;;;;;;5049091;28;20547;-75
2022/10/06 05:32:49;;;;;;;581.53;525.65;;;14.90;99.90;;;;;;5051331;28;20210;-75
2022/10/06 05:35:16;;;;;;;578.15;522.15;;;14.90;99.90;;;;;;5042828;28;20207;-75
2022/10/06 05:37:43;;;;;;;588.28;530.47;;;14.90;99.90;;;;;;5049788;28;20199;-75
2022/10/06 05:40:10;;;;;;;577.58;514.67;;;14.90;99.90;;;;;;5049875;28;20210;-75
2022/10/06 05:42:39;;;;;;;583.25;524.85;;;14.90;99.90;;;;;;5046210;28;20203;-74
2022/10/06 05:45:06;;;;;;;574.20;516.90;;;14.90;99.90;;;;;;5047519;28;20203;-74
2022/10/06 05:47:33;;;;;;;583.35;525.28;;;14.90;99.90;;;;;;5048363;28;20302;-76
2022/10/06 05:50:00;;;;;;;588.92;530.58;;;14.90;99.90;;;;;;5045195;28;20200;-76
2022/10/06 05:52:27;;;;;;;594.08;535.55;;;14.90;99.90;;;;;;5050902;28;20230;-75
2022/10/06 05:54:54;;;;;;;601.03;515.85;;;14.90;99.90;;;;;;5047085;28;20693;-77
2022/10/06 05:57:21;;;;;;;671.45;520.22;;;14.90;99.90;;;;;;5050155;28;20234;-75
2022/10/06 05:59:49;;;;;;;645.45;509.75;;;14.80;99.90;;;;;;5048306;28;20222;-75
2022/10/06 06:02:16;;;;;;;664.05;536.00;;;14.80;99.90;;;;;;5044776;28;20196;-75
2022/10/06 06:04:43;;;;;;;656.75;515.33;;;14.80;99.90;;;;;;5048151;28;20638;-75
2022/10/06 06:07:10;;;;;;;632.15;512.55;;;14.80;99.90;;;;;;5048236;28;20299;-75
2022/10/06 06:09:36;;;;;;;635.33;512.10;;;14.80;99.90;;;;;;5050536;28;20332;-76
2022/10/06 06:12:03;;;;;;;649.55;513.50;;;14.80;99.90;;;;;;5038954;28;20236;-76
2022/10/06 06:17:12;;;;;;;653.25;512.42;;;14.80;99.90;;;;;;5021790;28;20305;-79
2022/10/06 06:19:39;;;;;;;644.90;505.13;;;14.80;99.90;;;;;;5039022;28;20203;-77
2022/10/06 06:22:05;;;;;;;643.65;500.70;;;14.80;99.90;;;;;;5041478;28;20210;-76
2022/10/06 06:24:32;;;;;;;621.50;504.20;;;14.80;99.90;;;;;;5040213;28;20195;-77
2022/10/06 06:26:59;;;;;;;625.17;509.17;;;14.80;99.90;;;;;;5040590;28;20229;-78
2022/10/06 06:29:26;;;;;;;634.30;517.67;;;14.80;99.90;;;;;;5057589;28;20646;-77
2022/10/06 06:31:53;;;;;;;618.22;514.40;;;14.80;99.90;;;;;;5043186;28;20208;-78
2022/10/06 06:34:21;;;;;;;594.35;516.25;;;14.80;99.90;;;;;;5043499;28;20203;-77
2022/10/06 06:36:52;;;;;;;621.70;516.47;;;14.80;99.90;;;;;;5049780;28;20182;-81
2022/10/06 06:39:20;;;;;;;621.42;512.53;;;14.80;99.90;;;;;;5050337;28;20191;-78
2022/10/06 06:41:47;;;;;;;632.58;491.95;;;14.80;99.90;;;;;;5048884;28;20199;-77
2022/10/06 06:44:15;;;;;;;583.53;505.05;;;14.80;99.90;;;;;;5047819;28;20199;-78
2022/10/06 06:46:46;;;;;;;631.15;506.27;;;14.80;99.90;;;;;;5049084;28;20222;-78
2022/10/06 06:49:13;;;;;;;649.83;507.38;;;14.80;99.90;;;;;;5042734;28;20536;-78
2022/10/06 06:51:43;;;;;;;654.63;513.83;;;14.80;99.90;;;;;;5041392;28;20214;-78
2022/10/06 06:54:11;;;;;;;658.38;512.35;;;14.90;99.90;;;;;;5046963;28;20199;-78
2022/10/06 06:56:38;;;;;;;658.72;513.25;;;14.90;99.90;;;;;;5039990;28;20249;-78
2022/10/06 06:59:09;;;;;;;639.13;516.45;;;15.00;99.90;;;;;;5053421;28;20205;-77
2022/10/06 07:01:36;;;;;;;633.30;522.42;;;15.10;99.90;;;;;;5045130;28;20202;-78
2022/10/06 07:04:04;;;;;;;636.70;529.15;;;15.30;99.90;;;;;;5038885;28;20196;-79
2022/10/06 07:06:32;;;;;;;650.53;535.88;;;15.40;99.90;;;;;;5049310;28;20721;-79
2022/10/06 07:09:01;;;;;;;646.30;552.65;;;15.50;99.90;;;;;;5038985;28;20203;-76
2022/10/06 07:11:29;;;;;;;634.42;563.45;;;15.60;99.90;;;;;;5041403;28;20202;-79
2022/10/06 07:13:59;;;;;;;639.55;548.10;;;15.70;99.90;;;;;;5048656;28;20194;-78
2022/10/06 07:27:31;;;;;;;665.72;608.63;;;16.30;99.90;;;;;;5047399;28;20280;-78
2022/10/06 07:29:58;;;;;;;647.58;591.17;;;16.40;99.90;;;;;;5042913;28;20195;-77
2022/10/06 07:32:29;;;;;;;648.50;591.65;;;16.50;99.90;;;;;;5048775;28;20613;-77
2022/10/06 07:34:57;;;;;;;643.33;587.28;;;16.60;99.90;;;;;;5043824;28;20208;-77
2022/10/06 07:37:25;;;;;;;666.05;608.75;;;16.60;99.90;;;;;;5044212;28;20188;-77
2022/10/06 07:39:53;;;;;;;661.63;604.10;;;16.70;99.90;;;;;;5051075;28;20264;-76
2022/10/06 07:42:20;;;;;;;673.05;615.05;;;16.80;99.90;;;;;;5049571;28;20215;-77
2022/10/06 07:45:37;;;;;;;684.50;625.63;;;16.80;99.90;;;;;;5043555;28;20600;-78
2022/10/06 07:47:36;;;;;;;666.22;607.42;;;16.90;99.90;;;;;;5041180;28;20317;-77
2022/10/06 07:50:04;;;;;;;681.90;623.80;;;16.90;99.90;;;;;;5050434;28;20265;-78
2022/10/06 07:52:31;;;;;;;701.00;642.47;;;16.90;99.90;;;;;;5047025;28;20195;-78
2022/10/06 07:54:59;;;;;;;684.38;625.70;;;17.00;99.90;;;;;;5046743;28;20724;-77
2022/10/06 07:57:29;;;;;;;684.17;626.28;;;17.00;99.90;;;;;;5050066;28;20199;-76
2022/10/06 07:59:55;;;;;;;708.83;650.13;;;17.00;99.90;;;;;;5050576;28;20195;-76
2022/10/06 08:02:25;;;;;;;699.92;640.90;;;17.10;99.90;;;;;;5039169;28;20288;-78
2022/10/06 08:04:52;;;;;;;686.42;628.33;;;17.10;99.90;;;;;;5044087;28;20670;-77
2022/10/06 08:07:19;;;;;;;723.22;663.47;;;17.10;99.90;;;;;;5040899;28;20219;-78
2022/10/06 08:09:45;;;;;;;716.35;657.92;;;17.10;99.90;;;;;;5047651;28;20210;-76
2022/10/06 08:14:58;;;;;;;702.00;643.05;;;17.20;99.90;;;;;;5050125;28;20288;-76
2022/10/06 08:17:25;;;;;;;695.58;637.17;;;17.10;99.90;;;;;;5049426;28;20223;-76
2022/10/06 08:19:53;;;;;;;700.38;642.08;;;17.10;99.90;;;;;;5047828;28;20210;-76
2022/10/06 08:22:21;;;;;;;703.00;643.50;;;17.10;99.90;;;;;;5049408;28;20287;-76
2022/10/06 08:24:47;;;;;;;712.58;653.67;;;17.10;99.90;;;;;;5048436;28;20566;-76
2022/10/06 08:27:15;;;;;;;718.92;659.95;;;17.10;99.90;;;;;;5037511;28;20234;-76
2022/10/06 08:29:42;;;;;;;718.53;658.80;;;17.20;99.90;;;;;;5043552;28;20570;-76
2022/10/06 08:32:09;;;;;;;708.83;649.47;;;17.20;99.90;;;;;;5049432;28;20213;-78
2022/10/06 08:34:35;;;;;;;710.58;651.67;;;17.20;99.90;;;;;;5046718;28;20207;-75
2022/10/06 08:37:03;;;;;;;705.03;646.13;;;17.10;99.90;;;;;;5047772;28;20646;-76
2022/10/06 08:39:30;;;;;;;724.88;664.47;;;17.20;99.90;;;;;;5048745;28;20203;-76
2022/10/06 08:41:58;;;;;;;708.08;648.83;;;17.10;99.90;;;;;;5041830;28;20274;-77
2022/10/06 08:44:33;;;;;;;703.92;645.35;;;17.20;99.90;;;;;;5047279;28;20458;-76
2022/10/06 08:47:03;;;;;;;707.83;649.08;;;17.20;99.90;;;;;;5050952;28;20741;-76
2022/10/06 08:49:37;;;;;;;696.45;637.55;;;17.20;99.90;;;;;;5052572;28;20199;-76
2022/10/06 08:52:17;;;;;;;720.17;660.65;;;17.20;99.90;;;;;;5046866;28;20730;-77
2022/10/06 08:54:49;;;;;;;720.70;660.63;;;17.20;99.90;;;;;;5050682;28;20573;-77
2022/10/06 08:57:20;;;;;;;695.45;635.85;;;17.20;99.90;;;;;;5050377;28;20210;-76
2022/10/06 08:59:51;;;;;;;711.00;650.00;;;17.20;99.90;;;;;;5048653;28;20231;-77
2022/10/06 09:02:27;;;;;;;683.03;638.33;;;17.20;99.90;;;;;;5053303;28;20601;-77
2022/10/06 09:04:55;;;;;;;700.42;651.75;;;17.20;99.90;;;;;;5050314;28;20230;-78
2022/10/06 09:07:31;;;;;;;720.33;659.95;;;17.20;99.90;;;;;;5041788;28;20215;-78
2022/10/06 09:10:12;;;;;;;732.03;671.38;;;17.20;99.90;;;;;;5044745;28;20203;-79
2022/10/06 09:12:43;;;;;;;712.63;652.53;;;17.20;99.90;;;;;;5050102;28;20199;-76
2022/10/06 09:15:26;;;;;;;694.97;635.67;;;17.20;99.90;;;;;;5048775;28;20206;-77
2022/10/06 09:17:57;;;;;;;731.45;671.25;;;17.20;99.90;;;;;;5049459;28;20219;-79
2022/10/06 09:20:32;;;;;;;709.45;649.30;;;17.20;99.90;;;;;;5047921;28;20202;-77
2022/10/06 09:23:00;;;;;;;713.28;652.97;;;17.20;99.90;;;;;;5050941;28;20206;-81
2022/10/06 09:25:29;;;;;;;724.20;663.65;;;17.30;99.90;;;;;;5048750;28;20199;-79
2022/10/06 09:27:57;;;;;;;715.70;655.80;;;17.30;99.90;;;;;;5049801;28;20594;-79
2022/10/06 09:30:26;;;;;;;708.75;648.92;;;17.30;99.90;;;;;;5048425;28;21494;-77
2022/10/06 09:32:58;;;;;;;722.90;662.63;;;17.30;99.90;;;;;;5052157;28;20195;-77
2022/10/06 09:35:26;;;;;;;713.17;653.17;;;17.20;99.90;;;;;;5045675;28;20685;-79
2022/10/06 09:37:55;;;;;;;723.58;662.78;;;17.20;99.90;;;;;;5039725;28;20200;-79
2022/10/06 09:40:36;;;;;;;727.53;666.53;;;17.20;99.90;;;;;;5048872;28;20286;-79
2022/10/06 09:43:03;;;;;;;692.33;632.75;;;17.20;99.90;;;;;;5051530;28;20191;-77
2022/10/06 09:45:31;;;;;;;718.15;657.45;;;17.10;99.90;;;;;;5050669;28;20210;-79
2022/10/06 09:48:12;;;;;;;700.70;640.42;;;17.10;99.90;;;;;;5047193;28;20225;-79
2022/10/06 09:50:39;;;;;;;698.55;638.03;;;17.10;99.90;;;;;;5050451;28;20218;-77
2022/10/06 09:53:17;;;;;;;699.33;637.72;;;17.10;99.90;;;;;;5050599;28;20206;-79
2022/10/06 09:55:51;;;;;;;700.15;639.08;;;17.10;99.90;;;;;;5047669;28;20245;-78
2022/10/06 09:58:32;;;;;;;711.78;649.90;;;17.10;99.90;;;;;;5049043;28;20202;-79
2022/10/06 10:01:03;;;;;;;699.72;638.83;;;17.00;99.90;;;;;;5051346;28;20199;-78
2022/10/06 10:03:48;;;;;;;706.13;643.72;;;17.00;99.90;;;;;;5051098;28;20577;-80
2022/10/06 10:06:27;;;;;;;711.17;648.22;;;17.00;99.90;;;;;;5049054;28;20654;-78
2022/10/06 10:09:21;;;;;;;707.85;644.60;;;16.90;99.90;;;;;;5042584;28;20238;-78
2022/10/06 10:14:46;;;;;;;685.22;620.35;;;16.90;99.90;;;;;;5051756;28;20213;-78
2022/10/06 10:17:19;;;;;;;711.22;645.22;;;16.90;99.90;;;;;;5048785;28;20227;-78
2022/10/06 10:19:51;;;;;;;705.63;639.97;;;16.90;99.90;;;;;;5041583;28;20682;-77
2022/10/06 10:22:22;;;;;;;711.60;644.95;;;16.80;99.90;;;;;;5047334;28;20563;-80
2022/10/06 10:24:59;;;;;;;695.88;629.42;;;16.80;99.90;;;;;;5042592;28;20203;-77
2022/10/06 10:27:36;;;;;;;694.00;628.35;;;16.80;99.90;;;;;;5048020;28;20567;-78
2022/10/06 10:30:08;;;;;;;706.55;639.80;;;16.80;99.90;;;;;;5049295;28;20341;-77
2022/10/06 10:32:51;;;;;;;713.95;647.25;;;16.80;99.90;;;;;;5046900;28;20210;-76
2022/10/06 10:35:24;;;;;;;701.67;635.47;;;16.80;99.90;;;;;;5046309;28;20198;-76
2022/10/06 10:37:57;;;;;;;695.40;629.45;;;16.80;99.90;;;;;;5043874;28;20202;-75
2022/10/06 10:40:31;;;;;;;696.65;630.92;;;16.70;99.90;;;;;;5044120;28;20788;-76
2022/10/06 10:43:06;;;;;;;708.05;635.88;;;16.70;99.90;;;;;;5040581;28;20211;-75
2022/10/06 10:45:34;;;;;;;697.63;609.33;;;16.60;99.90;;;;;;5040001;28;20203;-75
2022/10/06 10:48:06;;;;;;;697.55;615.70;;;16.60;99.90;;;;;;5047967;28;20223;-76
2022/10/06 10:50:43;;;;;;;716.90;614.30;;;16.60;99.90;;;;;;5039466;28;20198;-75
2022/10/06 10:53:17;;;;;;;695.92;618.15;;;16.60;99.90;;;;;;5048017;28;20218;-76
2022/10/06 10:55:46;;;;;;;696.78;618.20;;;16.60;99.90;;;;;;5043776;28;20191;-76
2022/10/06 10:58:19;;;;;;;676.50;600.75;;;16.60;99.90;;;;;;5046966;28;20558;-77
2022/10/06 11:00:49;;;;;;;695.08;622.92;;;16.60;99.90;;;;;;5047687;28;20202;-76
2022/10/06 11:03:18;;;;;;;697.22;612.13;;;16.60;99.90;;;;;;5041478;28;20230;-77
2022/10/06 11:05:59;;;;;;;710.70;615.42;;;16.60;99.90;;;;;;5040915;28;20199;-75
2022/10/06 11:08:34;;;;;;;711.70;617.75;;;16.70;99.90;;;;;;5047047;28;20313;-75
2022/10/06 11:11:04;;;;;;;706.35;603.58;;;16.70;99.90;;;;;;5041323;28;20581;-77
2022/10/06 11:13:38;;;;;;;711.58;618.13;;;16.70;99.90;;;;;;5048713;28;20203;-75
2022/10/06 11:16:16;;;;;;;716.50;624.00;;;16.70;99.90;;;;;;5046348;28;20237;-78
2022/10/06 11:18:57;;;;;;;719.13;634.60;;;16.70;99.90;;;;;;5043555;28;20214;-76
2022/10/06 11:21:30;;;;;;;715.00;606.13;;;16.70;99.90;;;;;;5044912;28;20653;-76
2022/10/06 11:24:02;;;;;;;719.15;625.90;;;16.70;99.90;;;;;;5045721;28;20282;-76
2022/10/06 11:26:56;;;;;;;709.22;605.35;;;16.70;99.90;;;;;;5048548;28;20595;-76
2022/10/06 11:29:34;;;;;;;708.67;592.22;;;16.70;99.90;;;;;;5055477;28;20210;-80
2022/10/06 11:32:10;;;;;;;719.33;619.70;;;16.70;99.90;;;;;;5045767;28;20578;-77
2022/10/06 11:34:39;;;;;;;705.90;625.67;;;16.70;99.90;;;;;;5034943;28;20191;-77
2022/10/06 11:37:17;;;;;;;693.22;614.70;;;16.70;99.90;;;;;;5041701;28;20187;-78
2022/10/06 11:39:50;;;;;;;698.85;622.22;;;16.70;99.90;;;;;;5046188;28;20202;-75
2022/10/06 11:42:22;;;;;;;697.40;614.65;;;16.70;99.90;;;;;;5047334;28;20682;-77
2022/10/06 11:44:55;;;;;;;707.75;621.78;;;16.70;99.90;;;;;;5048719;28;20662;-77
2022/10/06 11:47:25;;;;;;;710.55;623.30;;;16.70;99.90;;;;;;5042176;28;20658;-77
2022/10/06 11:49:54;;;;;;;685.35;607.47;;;16.70;99.90;;;;;;5044177;28;20195;-77
2022/10/06 11:52:55;;;;;;;702.75;623.20;;;16.70;99.90;;;;;;5042841;28;20221;-76
2022/10/06 11:55:25;;;;;;;707.78;588.38;;;16.60;99.90;;;;;;5047252;28;20199;-77
2022/10/06 11:58:11;;;;;;;707.78;600.72;;;16.70;99.90;;;;;;5052749;28;20693;-76
2022/10/06 12:00:46;;;;;;;704.47;594.30;;;16.60;99.90;;;;;;5047904;28;20654;-76
2022/10/06 12:03:48;;;;;;;702.45;595.38;;;16.60;99.90;;;;;;5046257;28;20285;-76
2022/10/06 12:06:51;;;;;;;704.42;603.40;;;16.60;99.90;;;;;;5026404;28;20650;-76
2022/10/06 12:09:45;;;;;;;693.08;605.10;;;16.60;99.90;;;;;;5040274;28;20219;-76
2022/10/06 12:12:45;;;;;;;677.75;604.80;;;16.60;99.90;;;;;;5041637;28;20260;-77
2022/10/06 12:15:49;;;;;;;674.03;600.75;;;16.60;99.90;;;;;;5039226;28;20290;-76
2022/10/06 12:18:35;;;;;;;660.47;582.67;;;16.60;99.90;;;;;;5049154;28;20219;-75
2022/10/06 12:21:17;;;;;;;697.72;604.53;;;16.60;99.90;;;;;;5053811;28;20191;-80
2022/10/06 12:23:55;;;;;;;697.72;588.65;;;16.60;99.90;;;;;;5041922;28;20468;-75
2022/10/06 12:26:37;;;;;;;700.90;595.72;;;16.60;99.90;;;;;;5050213;28;20293;-75
2022/10/06 12:29:29;;;;;;;700.97;602.22;;;16.60;99.90;;;;;;5053684;28;20219;-76
2022/10/06 12:32:07;;;;;;;704.97;608.42;;;16.60;99.90;;;;;;5053695;28;20195;-75
2022/10/06 12:34:50;;;;;;;700.60;590.60;;;16.50;99.90;;;;;;5051863;28;20831;-76
2022/10/06 12:37:40;;;;;;;690.80;593.28;;;16.50;99.90;;;;;;5051948;28;20605;-76
2022/10/06 12:40:55;;;;;;;692.50;597.45;;;16.60;99.90;;;;;;5052116;28;20206;-76
2022/10/06 12:43:43;;;;;;;697.95;596.53;;;16.60;99.90;;;;;;5050650;28;20228;-75
2022/10/06 12:46:16;;;;;;;705.20;602.08;;;16.50;99.90;;;;;;5050677;28;20654;-77